Buoy 41607

sailwx.info

Track history (hours):
 
Tides and Currents Weather Stations Pressure Air Temp Water Temp Dewpoint Dewpoint Depression Visibility Wind Speed Wind Dir Waves Ship Positions

Drifting buoy 41607

Last reported at 2014-Oct-31 16:00 UTC. Time now 2014-Nov-01 08:56 UTC.
Position N 25°01' W 052°45'.

Water temperature 27.7 ° C

Date/timePositionNaut miles runAvg speedWind from/ knotsBaromVisibWave heightAir tempDewpointWater temp
2014-Oct-31 16:00N 25°01' W 052°45'0 0.2 27.7
2014-Oct-31 14:00N 25°01' W 052°44'0 0.0 27.7
2014-Oct-31 13:00N 25°01' W 052°44'1 1.1 27.7
2014-Oct-31 12:00N 25°01' W 052°43'0 0.0 27.7
2014-Oct-31 10:00N 25°01' W 052°43'0 0.2 27.7
2014-Oct-31 08:00N 25°01' W 052°43'2 0.3 27.7
2014-Oct-31 01:00N 25°00' W 052°40'0 0.0 27.7
2014-Oct-30 23:00N 25°00' W 052°40'2 2.1 27.7
2014-Oct-30 22:00N 24°59' W 052°38'0 0.0 27.7
2014-Oct-30 16:00N 24°59' W 052°38'1 0.6 27.7
2014-Oct-30 14:00N 24°58' W 052°37'0 0.0 27.7
2014-Oct-30 13:00N 24°58' W 052°37'1 0.3 27.7
2014-Oct-30 09:00N 24°58' W 052°36'1 1.0 27.7
2014-Oct-30 08:00N 24°58' W 052°35'0 0.0 27.7
2014-Oct-30 07:00N 24°58' W 052°35'3 0.5 27.8
2014-Oct-30 01:00N 24°56' W 052°32'0 0.0 28.0
2014-Oct-30 00:00N 24°56' W 052°32'0 0.0 28.1
2014-Oct-29 23:00N 24°56' W 052°32'0 0.0 28.2
2014-Oct-29 22:00N 24°56' W 052°32'1 0.4 28.4
2014-Oct-29 20:00N 24°56' W 052°31'0 0.0 28.5
2014-Oct-29 19:00N 24°56' W 052°31'1 0.3 28.6
2014-Oct-29 16:00N 24°56' W 052°31'2 1.6 28.4
2014-Oct-29 15:00N 24°56' W 052°29'0 0.0 28.2
2014-Oct-29 14:00N 24°56' W 052°29'0 0.1 28.0
2014-Oct-29 13:00N 24°56' W 052°29'1 0.1 27.9
2014-Oct-29 09:00N 24°55' W 052°29'3 1.3 27.8
2014-Oct-29 07:00N 24°54' W 052°26'0 0.0 27.8
2014-Oct-29 05:00N 24°54' W 052°26'1 0.2 27.9
2014-Oct-29 01:00N 24°54' W 052°27'1 0.6 28.0
2014-Oct-28 23:00N 24°54' W 052°25'1 0.3 28.2
2014-Oct-28 20:00N 24°53' W 052°25'2 1.9 28.4
2014-Oct-28 19:00N 24°53' W 052°23'0 0.0 28.3
2014-Oct-28 18:00N 24°53' W 052°23'1 0.5 28.4
2014-Oct-28 17:00N 24°53' W 052°24'1 0.5 28.8
2014-Oct-28 16:00N 24°53' W 052°23'1 0.5 28.6
2014-Oct-28 15:00N 24°53' W 052°24'1 1.1 28.3
2014-Oct-28 14:00N 24°52' W 052°23'0 0.0 28.2
2014-Oct-28 09:00N 24°53' W 052°23'0 0.0 27.7
2014-Oct-28 08:00N 24°53' W 052°23'1 0.1 27.7
2014-Oct-28 02:00N 24°52' W 052°23'1 0.4 27.8
2014-Oct-27 23:00N 24°52' W 052°21'0 0.1 27.9
2014-Oct-27 22:00N 24°52' W 052°21'1 0.7 27.9
2014-Oct-27 20:00N 24°51' W 052°20'0 0.0 28.0
2014-Oct-27 19:00N 24°51' W 052°20'0 0.0 28.1
2014-Oct-27 18:00N 24°51' W 052°20'1 1.3 28.0
2014-Oct-27 17:00N 24°49' W 052°20'0 0.0 28.1
2014-Oct-27 15:00N 24°49' W 052°20'1 0.5 28.0
2014-Oct-27 14:00N 24°49' W 052°19'0 0.0 27.9
2014-Oct-27 12:00N 24°49' W 052°19'0 0.0 27.8
2014-Oct-27 11:00N 24°49' W 052°19'0 0.1 27.8
2014-Oct-27 07:00N 24°50' W 052°19'0 0.4 27.8
2014-Oct-27 06:00N 24°49' W 052°19'0 0.0 27.8
2014-Oct-27 05:00N 24°49' W 052°19'2 0.8 27.8
2014-Oct-27 02:00N 24°48' W 052°17'0 0.0 27.9
2014-Oct-27 01:00N 24°48' W 052°17'1 0.4 27.9
2014-Oct-26 23:00N 24°47' W 052°18'0 0.0 27.9
2014-Oct-26 22:00N 24°47' W 052°18'1 1.3 27.9
2014-Oct-26 21:00N 24°47' W 052°19'1 1.0 27.9
2014-Oct-26 20:00N 24°46' W 052°19'0 0.0 27.9
2014-Oct-26 17:00N 24°46' W 052°19'0 0.0 28.0
2014-Oct-26 15:00N 24°46' W 052°19'1 1.1 27.9
2014-Oct-26 14:00N 24°46' W 052°18'2 0.4 27.9
2014-Oct-26 09:00N 24°44' W 052°18'1 0.7 27.8
2014-Oct-26 08:00N 24°43' W 052°18'0 0.0 27.8
2014-Oct-26 07:00N 24°43' W 052°18'0 0.0 27.8
2014-Oct-26 06:00N 24°43' W 052°18'2 0.3 27.9
2014-Oct-26 01:00N 24°42' W 052°16'0 0.0 28.0
2014-Oct-25 23:00N 24°42' W 052°16'0 0.2 28.1
2014-Oct-25 21:00N 24°42' W 052°17'0 0.0 28.2
2014-Oct-25 20:00N 24°42' W 052°17'2 0.7 28.2
2014-Oct-25 17:00N 24°41' W 052°18'0 0.1 28.3
2014-Oct-25 16:00N 24°41' W 052°18'2 0.5 28.3
2014-Oct-25 12:00N 24°39' W 052°18'0 0.0 28.2
2014-Oct-25 11:00N 24°39' W 052°18'0 0.0 28.1
2014-Oct-25 10:00N 24°39' W 052°18'0 0.4 28.0
2014-Oct-25 09:00N 24°38' W 052°18'1 0.3 28.0
2014-Oct-25 06:00N 24°38' W 052°17'1 0.5 28.1
2014-Oct-25 05:00N 24°37' W 052°17'0 0.0 28.2
2014-Oct-25 04:00N 24°37' W 052°17'0 0.1 28.3
2014-Oct-24 23:00N 24°37' W 052°17'0 0.5 29.0
2014-Oct-24 22:00N 24°37' W 052°18'1 0.8 29.1
2014-Oct-24 21:00N 24°36' W 052°18'0 0.0 29.4
2014-Oct-24 18:00N 24°36' W 052°18'1 1.0 30.1
2014-Oct-24 17:00N 24°36' W 052°19'0 0.1 29.9
2014-Oct-24 16:00N 24°36' W 052°19'0 0.1 29.5
2014-Oct-24 14:00N 24°36' W 052°19'1 1.4 28.6
2014-Oct-24 13:00N 24°34' W 052°20'0 0.0 28.2
2014-Oct-24 12:00N 24°34' W 052°20'0 0.0 27.9
2014-Oct-24 10:00N 24°34' W 052°20'0 0.3 27.8
2014-Oct-24 09:00N 24°34' W 052°20'1 0.8 27.9
2014-Oct-24 08:00N 24°34' W 052°20'0 0.0 27.9
2014-Oct-24 06:00N 24°34' W 052°20'1 0.3 28.0
2014-Oct-24 01:00N 24°33' W 052°21'1 0.8 28.2
2014-Oct-24 00:00N 24°33' W 052°20'0 0.0 28.2
2014-Oct-23 23:00N 24°33' W 052°20'0 0.3 28.4
2014-Oct-23 22:00N 24°33' W 052°21'1 0.3 28.5
2014-Oct-23 20:00N 24°33' W 052°21'1 0.5 29.0
2014-Oct-23 19:00N 24°33' W 052°22'2 0.5 29.3
2014-Oct-23 16:00N 24°32' W 052°23'0 0.0 28.8
2014-Oct-23 14:00N 24°32' W 052°23'1 0.5 28.3
2014-Oct-23 12:00N 24°31' W 052°24'0 0.0 27.8
2014-Oct-23 11:00N 24°31' W 052°24'0 0.1 27.7
2014-Oct-23 10:00N 24°31' W 052°24'0 0.1 27.7
2014-Oct-23 07:00N 24°31' W 052°24'0 0.4 27.8
2014-Oct-23 06:00N 24°31' W 052°25'1 0.4 27.8
2014-Oct-23 02:00N 24°31' W 052°27'0 0.0 27.9
2014-Oct-23 01:00N 24°31' W 052°27'0 0.0 28.0
2014-Oct-22 23:00N 24°31' W 052°27'1 0.2 28.1
2014-Oct-22 20:00N 24°30' W 052°27'0 0.2 28.3
2014-Oct-22 18:00N 24°30' W 052°27'1 0.8 28.4
2014-Oct-22 17:00N 24°30' W 052°28'0 0.0 28.4
2014-Oct-22 16:00N 24°30' W 052°28'2 0.9 28.3
2014-Oct-22 14:00N 24°30' W 052°30'0 0.0 27.9
2014-Oct-22 12:00N 24°30' W 052°30'0 0.0 27.7
2014-Oct-22 11:00N 24°30' W 052°30'0 0.0 27.7
2014-Oct-22 10:00N 24°30' W 052°30'0 0.2 27.6
2014-Oct-22 09:00N 24°30' W 052°30'0 0.4 27.7
2014-Oct-22 08:00N 24°30' W 052°30'0 0.0 27.7
2014-Oct-22 07:00N 24°30' W 052°30'2 0.2 27.7
2014-Oct-22 00:00N 24°30' W 052°32'1 0.9 27.8
2014-Oct-21 23:00N 24°30' W 052°33'0 0.0 27.9
2014-Oct-21 22:00N 24°30' W 052°33'0 0.0 27.9
2014-Oct-21 21:00N 24°30' W 052°33'0 0.0 28.0
2014-Oct-21 20:00N 24°30' W 052°33'0 0.2 28.1
2014-Oct-21 18:00N 24°31' W 052°33'   28.0
Track history (hours):
 
Tides and Currents Weather Stations Pressure Air Temp Water Temp Dewpoint Dewpoint Depression Visibility Wind Speed Wind Dir Waves Ship Positions

Drifting buoy 41607

Last reported at 2014-Oct-31 16:00 UTC. Time now 2014-Nov-01 08:56 UTC.
Position N 25°01' W 052°45'.

Water temperature 27.7 ° C

Date/timePositionNaut miles runAvg speedWind from/ knotsBaromVisibWave heightAir tempDewpointWater temp
2014-Oct-31 16:00N 25°01' W 052°45'0 0.2 27.7
2014-Oct-31 14:00N 25°01' W 052°44'0 0.0 27.7
2014-Oct-31 13:00N 25°01' W 052°44'1 1.1 27.7
2014-Oct-31 12:00N 25°01' W 052°43'0 0.0 27.7
2014-Oct-31 10:00N 25°01' W 052°43'0 0.2 27.7
2014-Oct-31 08:00N 25°01' W 052°43'2 0.3 27.7
2014-Oct-31 01:00N 25°00' W 052°40'0 0.0 27.7
2014-Oct-30 23:00N 25°00' W 052°40'2 2.1 27.7
2014-Oct-30 22:00N 24°59' W 052°38'0 0.0 27.7
2014-Oct-30 16:00N 24°59' W 052°38'1 0.6 27.7
2014-Oct-30 14:00N 24°58' W 052°37'0 0.0 27.7
2014-Oct-30 13:00N 24°58' W 052°37'1 0.3 27.7
2014-Oct-30 09:00N 24°58' W 052°36'1 1.0 27.7
2014-Oct-30 08:00N 24°58' W 052°35'0 0.0 27.7
2014-Oct-30 07:00N 24°58' W 052°35'3 0.5 27.8
2014-Oct-30 01:00N 24°56' W 052°32'0 0.0 28.0
2014-Oct-30 00:00N 24°56' W 052°32'0 0.0 28.1
2014-Oct-29 23:00N 24°56' W 052°32'0 0.0 28.2
2014-Oct-29 22:00N 24°56' W 052°32'1 0.4 28.4
2014-Oct-29 20:00N 24°56' W 052°31'0 0.0 28.5
2014-Oct-29 19:00N 24°56' W 052°31'1 0.3 28.6
2014-Oct-29 16:00N 24°56' W 052°31'2 1.6 28.4
2014-Oct-29 15:00N 24°56' W 052°29'0 0.0 28.2
2014-Oct-29 14:00N 24°56' W 052°29'0 0.1 28.0
2014-Oct-29 13:00N 24°56' W 052°29'1 0.1 27.9
2014-Oct-29 09:00N 24°55' W 052°29'3 1.3 27.8
2014-Oct-29 07:00N 24°54' W 052°26'0 0.0 27.8
2014-Oct-29 05:00N 24°54' W 052°26'1 0.2 27.9
2014-Oct-29 01:00N 24°54' W 052°27'1 0.6 28.0
2014-Oct-28 23:00N 24°54' W 052°25'1 0.3 28.2
2014-Oct-28 20:00N 24°53' W 052°25'2 1.9 28.4
2014-Oct-28 19:00N 24°53' W 052°23'0 0.0 28.3
2014-Oct-28 18:00N 24°53' W 052°23'1 0.5 28.4
2014-Oct-28 17:00N 24°53' W 052°24'1 0.5 28.8
2014-Oct-28 16:00N 24°53' W 052°23'1 0.5 28.6
2014-Oct-28 15:00N 24°53' W 052°24'1 1.1 28.3
2014-Oct-28 14:00N 24°52' W 052°23'0 0.0 28.2
2014-Oct-28 09:00N 24°53' W 052°23'0 0.0 27.7
2014-Oct-28 08:00N 24°53' W 052°23'1 0.1 27.7
2014-Oct-28 02:00N 24°52' W 052°23'1 0.4 27.8
2014-Oct-27 23:00N 24°52' W 052°21'0 0.1 27.9
2014-Oct-27 22:00N 24°52' W 052°21'1 0.7 27.9
2014-Oct-27 20:00N 24°51' W 052°20'0 0.0 28.0
2014-Oct-27 19:00N 24°51' W 052°20'0 0.0 28.1
2014-Oct-27 18:00N 24°51' W 052°20'1 1.3 28.0
2014-Oct-27 17:00N 24°49' W 052°20'0 0.0 28.1
2014-Oct-27 15:00N 24°49' W 052°20'1 0.5 28.0
2014-Oct-27 14:00N 24°49' W 052°19'0 0.0 27.9
2014-Oct-27 12:00N 24°49' W 052°19'0 0.0 27.8
2014-Oct-27 11:00N 24°49' W 052°19'0 0.1 27.8
2014-Oct-27 07:00N 24°50' W 052°19'0 0.4 27.8
2014-Oct-27 06:00N 24°49' W 052°19'0 0.0 27.8
2014-Oct-27 05:00N 24°49' W 052°19'2 0.8 27.8
2014-Oct-27 02:00N 24°48' W 052°17'0 0.0 27.9
2014-Oct-27 01:00N 24°48' W 052°17'1 0.4 27.9
2014-Oct-26 23:00N 24°47' W 052°18'0 0.0 27.9
2014-Oct-26 22:00N 24°47' W 052°18'1 1.3 27.9
2014-Oct-26 21:00N 24°47' W 052°19'1 1.0 27.9
2014-Oct-26 20:00N 24°46' W 052°19'0 0.0 27.9
2014-Oct-26 17:00N 24°46' W 052°19'0 0.0 28.0
2014-Oct-26 15:00N 24°46' W 052°19'1 1.1 27.9
2014-Oct-26 14:00N 24°46' W 052°18'2 0.4 27.9
2014-Oct-26 09:00N 24°44' W 052°18'1 0.7 27.8
2014-Oct-26 08:00N 24°43' W 052°18'0 0.0 27.8
2014-Oct-26 07:00N 24°43' W 052°18'0 0.0 27.8
2014-Oct-26 06:00N 24°43' W 052°18'2 0.3 27.9
2014-Oct-26 01:00N 24°42' W 052°16'0 0.0 28.0
2014-Oct-25 23:00N 24°42' W 052°16'0 0.2 28.1
2014-Oct-25 21:00N 24°42' W 052°17'0 0.0 28.2
2014-Oct-25 20:00N 24°42' W 052°17'2 0.7 28.2
2014-Oct-25 17:00N 24°41' W 052°18'0 0.1 28.3
2014-Oct-25 16:00N 24°41' W 052°18'2 0.5 28.3
2014-Oct-25 12:00N 24°39' W 052°18'0 0.0 28.2
2014-Oct-25 11:00N 24°39' W 052°18'0 0.0 28.1
2014-Oct-25 10:00N 24°39' W 052°18'0 0.4 28.0
2014-Oct-25 09:00N 24°38' W 052°18'1 0.3 28.0
2014-Oct-25 06:00N 24°38' W 052°17'1 0.5 28.1
2014-Oct-25 05:00N 24°37' W 052°17'0 0.0 28.2
2014-Oct-25 04:00N 24°37' W 052°17'0 0.1 28.3
2014-Oct-24 23:00N 24°37' W 052°17'0 0.5 29.0
2014-Oct-24 22:00N 24°37' W 052°18'1 0.8 29.1
2014-Oct-24 21:00N 24°36' W 052°18'0 0.0 29.4
2014-Oct-24 18:00N 24°36' W 052°18'1 1.0 30.1
2014-Oct-24 17:00N 24°36' W 052°19'0 0.1 29.9
2014-Oct-24 16:00N 24°36' W 052°19'0 0.1 29.5
2014-Oct-24 14:00N 24°36' W 052°19'1 1.4 28.6
2014-Oct-24 13:00N 24°34' W 052°20'0 0.0 28.2
2014-Oct-24 12:00N 24°34' W 052°20'0 0.0 27.9
2014-Oct-24 10:00N 24°34' W 052°20'0 0.3 27.8
2014-Oct-24 09:00N 24°34' W 052°20'1 0.8 27.9
2014-Oct-24 08:00N 24°34' W 052°20'0 0.0 27.9
2014-Oct-24 06:00N 24°34' W 052°20'1 0.3 28.0
2014-Oct-24 01:00N 24°33' W 052°21'1 0.8 28.2
2014-Oct-24 00:00N 24°33' W 052°20'0 0.0 28.2
2014-Oct-23 23:00N 24°33' W 052°20'0 0.3 28.4
2014-Oct-23 22:00N 24°33' W 052°21'1 0.3 28.5
2014-Oct-23 20:00N 24°33' W 052°21'1 0.5 29.0
2014-Oct-23 19:00N 24°33' W 052°22'2 0.5 29.3
2014-Oct-23 16:00N 24°32' W 052°23'0 0.0 28.8
2014-Oct-23 14:00N 24°32' W 052°23'1 0.5 28.3
2014-Oct-23 12:00N 24°31' W 052°24'0 0.0 27.8
2014-Oct-23 11:00N 24°31' W 052°24'0 0.1 27.7
2014-Oct-23 10:00N 24°31' W 052°24'0 0.1 27.7
2014-Oct-23 07:00N 24°31' W 052°24'0 0.4 27.8
2014-Oct-23 06:00N 24°31' W 052°25'1 0.4 27.8
2014-Oct-23 02:00N 24°31' W 052°27'0 0.0 27.9
2014-Oct-23 01:00N 24°31' W 052°27'0 0.0 28.0
2014-Oct-22 23:00N 24°31' W 052°27'1 0.2 28.1
2014-Oct-22 20:00N 24°30' W 052°27'0 0.2 28.3
2014-Oct-22 18:00N 24°30' W 052°27'1 0.8 28.4
2014-Oct-22 17:00N 24°30' W 052°28'0 0.0 28.4
2014-Oct-22 16:00N 24°30' W 052°28'2 0.9 28.3
2014-Oct-22 14:00N 24°30' W 052°30'0 0.0 27.9
2014-Oct-22 12:00N 24°30' W 052°30'0 0.0 27.7
2014-Oct-22 11:00N 24°30' W 052°30'0 0.0 27.7
2014-Oct-22 10:00N 24°30' W 052°30'0 0.2 27.6
2014-Oct-22 09:00N 24°30' W 052°30'0 0.4 27.7
2014-Oct-22 08:00N 24°30' W 052°30'0 0.0 27.7
2014-Oct-22 07:00N 24°30' W 052°30'2 0.2 27.7
2014-Oct-22 00:00N 24°30' W 052°32'1 0.9 27.8
2014-Oct-21 23:00N 24°30' W 052°33'0 0.0 27.9
2014-Oct-21 22:00N 24°30' W 052°33'0 0.0 27.9
2014-Oct-21 21:00N 24°30' W 052°33'0 0.0 28.0
2014-Oct-21 20:00N 24°30' W 052°33'0 0.2 28.1
2014-Oct-21 18:00N 24°31' W 052°33'   28.0

Dump ship's entire track history